Lingwood, United Kingdom
Current Conditions -  °F | °C
As of 6:50 PM on Friday 21 Nov 2014 (Local Time) from EGSD Reporting Station
Scattered Clouds Scattered Clouds  
Wind Chill: 52°   Ceiling: Unl
Heat Index: 52°   Visibility: 6mi
Dew Point: 46°   Wind: 8mph
Humidity: 82%   Direction: 130°SE
Pressure: 30"   Gusts: NA
Location:  52.62°N, 1.49°E
Report Text: EGSD 211850Z 13007KT 9999 SCT015 11/08 Q1016
Loading
Personal Weather Stations






























Interactive Weather Map New forecast layout! Learn more

10-Day Weather Forecast

Advertisements
Track Severe Weather on mobile